sensor_id;sensor_type;location;lat;lon;timestamp;P1;durP1;ratioP1;P2;durP2;ratioP2
30934;SDS011;51033;42.648;23.292;2023-03-14T00:01:21;16.98;;;10.93;;
30934;SDS011;51033;42.648;23.292;2023-03-14T00:03:48;22.38;;;13.50;;
30934;SDS011;51033;42.648;23.292;2023-03-14T00:06:14;21.50;;;12.27;;
30934;SDS011;51033;42.648;23.292;2023-03-14T00:08:40;18.73;;;12.85;;
30934;SDS011;51033;42.648;23.292;2023-03-14T00:11:13;19.75;;;12.57;;
30934;SDS011;51033;42.648;23.292;2023-03-14T00:13:47;22.08;;;12.77;;
30934;SDS011;51033;42.648;23.292;2023-03-14T00:16:13;18.60;;;12.38;;
30934;SDS011;51033;42.648;23.292;2023-03-14T00:18:42;16.55;;;11.80;;
30934;SDS011;51033;42.648;23.292;2023-03-14T00:21:08;17.88;;;11.70;;
30934;SDS011;51033;42.648;23.292;2023-03-14T00:23:36;17.17;;;10.52;;
30934;SDS011;51033;42.648;23.292;2023-03-14T00:26:03;15.40;;;10.13;;
30934;SDS011;51033;42.648;23.292;2023-03-14T00:28:31;13.75;;;10.45;;
30934;SDS011;51033;42.648;23.292;2023-03-14T00:30:56;17.27;;;10.38;;
30934;SDS011;51033;42.648;23.292;2023-03-14T00:33:22;17.60;;;11.80;;
30934;SDS011;51033;42.648;23.292;2023-03-14T00:35:58;16.20;;;10.65;;
30934;SDS011;51033;42.648;23.292;2023-03-14T00:38:35;14.25;;;10.27;;
30934;SDS011;51033;42.648;23.292;2023-03-14T00:41:04;17.90;;;11.70;;
30934;SDS011;51033;42.648;23.292;2023-03-14T00:43:34;18.05;;;11.65;;
30934;SDS011;51033;42.648;23.292;2023-03-14T00:46:00;16.25;;;11.40;;
30934;SDS011;51033;42.648;23.292;2023-03-14T00:48:25;18.33;;;11.70;;
30934;SDS011;51033;42.648;23.292;2023-03-14T00:50:51;16.20;;;11.25;;
30934;SDS011;51033;42.648;23.292;2023-03-14T00:53:16;18.25;;;12.10;;
30934;SDS011;51033;42.648;23.292;2023-03-14T00:55:42;20.05;;;12.18;;
30934;SDS011;51033;42.648;23.292;2023-03-14T00:58:09;17.48;;;12.75;;
30934;SDS011;51033;42.648;23.292;2023-03-14T01:00:35;14.32;;;11.05;;
30934;SDS011;51033;42.648;23.292;2023-03-14T01:03:01;17.58;;;11.27;;
30934;SDS011;51033;42.648;23.292;2023-03-14T01:05:26;15.25;;;10.55;;
30934;SDS011;51033;42.648;23.292;2023-03-14T01:07:52;18.27;;;11.27;;
30934;SDS011;51033;42.648;23.292;2023-03-14T01:10:17;15.57;;;11.18;;
30934;SDS011;51033;42.648;23.292;2023-03-14T01:12:43;17.67;;;11.05;;
30934;SDS011;51033;42.648;23.292;2023-03-14T01:15:09;15.13;;;10.23;;
30934;SDS011;51033;42.648;23.292;2023-03-14T01:17:34;16.75;;;11.38;;
30934;SDS011;51033;42.648;23.292;2023-03-14T01:20:00;15.38;;;10.98;;
30934;SDS011;51033;42.648;23.292;2023-03-14T01:22:26;13.43;;;10.50;;
30934;SDS011;51033;42.648;23.292;2023-03-14T01:24:51;18.52;;;12.45;;
30934;SDS011;51033;42.648;23.292;2023-03-14T01:27:17;19.85;;;12.88;;
30934;SDS011;51033;42.648;23.292;2023-03-14T01:29:42;19.52;;;12.80;;
30934;SDS011;51033;42.648;23.292;2023-03-14T01:32:08;16.73;;;11.48;;
30934;SDS011;51033;42.648;23.292;2023-03-14T01:34:33;14.60;;;10.35;;
30934;SDS011;51033;42.648;23.292;2023-03-14T01:36:58;17.00;;;11.38;;
30934;SDS011;51033;42.648;23.292;2023-03-14T01:39:24;15.88;;;11.00;;
30934;SDS011;51033;42.648;23.292;2023-03-14T01:41:49;15.20;;;11.13;;
30934;SDS011;51033;42.648;23.292;2023-03-14T01:44:15;13.95;;;10.68;;
30934;SDS011;51033;42.648;23.292;2023-03-14T01:46:41;15.43;;;11.27;;
30934;SDS011;51033;42.648;23.292;2023-03-14T01:57:02;20.25;;;13.25;;
30934;SDS011;51033;42.648;23.292;2023-03-14T01:59:38;20.60;;;12.18;;
30934;SDS011;51033;42.648;23.292;2023-03-14T02:02:08;21.25;;;12.95;;
30934;SDS011;51033;42.648;23.292;2023-03-14T02:04:36;21.77;;;12.52;;
30934;SDS011;51033;42.648;23.292;2023-03-14T02:07:25;16.15;;;11.75;;
30934;SDS011;51033;42.648;23.292;2023-03-14T02:09:59;17.67;;;10.93;;
30934;SDS011;51033;42.648;23.292;2023-03-14T02:12:26;13.88;;;10.10;;
30934;SDS011;51033;42.648;23.292;2023-03-14T02:14:52;12.90;;;8.95;;
30934;SDS011;51033;42.648;23.292;2023-03-14T02:17:18;11.27;;;9.07;;
30934;SDS011;51033;42.648;23.292;2023-03-14T02:22:19;18.70;;;10.25;;
30934;SDS011;51033;42.648;23.292;2023-03-14T02:27:32;14.73;;;10.25;;
30934;SDS011;51033;42.648;23.292;2023-03-14T02:30:04;15.85;;;9.30;;
30934;SDS011;51033;42.648;23.292;2023-03-14T02:32:33;14.63;;;9.55;;
30934;SDS011;51033;42.648;23.292;2023-03-14T02:35:03;13.65;;;9.65;;
30934;SDS011;51033;42.648;23.292;2023-03-14T02:37:38;16.83;;;10.32;;
30934;SDS011;51033;42.648;23.292;2023-03-14T02:40:25;13.82;;;9.70;;
30934;SDS011;51033;42.648;23.292;2023-03-14T02:42:51;11.60;;;9.07;;
30934;SDS011;51033;42.648;23.292;2023-03-14T02:47:43;15.13;;;9.57;;
30934;SDS011;51033;42.648;23.292;2023-03-14T02:50:13;17.83;;;9.48;;
30934;SDS011;51033;42.648;23.292;2023-03-14T02:52:45;13.70;;;9.57;;
30934;SDS011;51033;42.648;23.292;2023-03-14T02:55:11;12.98;;;10.05;;
30934;SDS011;51033;42.648;23.292;2023-03-14T02:57:36;14.57;;;9.18;;
30934;SDS011;51033;42.648;23.292;2023-03-14T03:00:02;12.80;;;9.88;;
30934;SDS011;51033;42.648;23.292;2023-03-14T03:02:32;14.68;;;10.25;;
30934;SDS011;51033;42.648;23.292;2023-03-14T03:04:58;15.07;;;9.70;;
30934;SDS011;51033;42.648;23.292;2023-03-14T03:07:23;15.75;;;9.77;;
30934;SDS011;51033;42.648;23.292;2023-03-14T03:09:49;14.88;;;9.55;;
30934;SDS011;51033;42.648;23.292;2023-03-14T03:12:14;15.15;;;10.18;;
30934;SDS011;51033;42.648;23.292;2023-03-14T03:14:39;12.80;;;9.13;;
30934;SDS011;51033;42.648;23.292;2023-03-14T03:17:05;14.13;;;10.23;;
30934;SDS011;51033;42.648;23.292;2023-03-14T03:19:31;18.20;;;9.13;;
30934;SDS011;51033;42.648;23.292;2023-03-14T03:21:57;12.25;;;9.07;;
30934;SDS011;51033;42.648;23.292;2023-03-14T03:24:22;11.43;;;8.48;;
30934;SDS011;51033;42.648;23.292;2023-03-14T03:26:48;13.60;;;8.70;;
30934;SDS011;51033;42.648;23.292;2023-03-14T03:29:14;13.60;;;9.55;;
30934;SDS011;51033;42.648;23.292;2023-03-14T03:31:39;13.05;;;9.45;;
30934;SDS011;51033;42.648;23.292;2023-03-14T03:34:05;12.57;;;9.38;;
30934;SDS011;51033;42.648;23.292;2023-03-14T03:36:30;12.73;;;9.00;;
30934;SDS011;51033;42.648;23.292;2023-03-14T03:38:56;11.90;;;8.73;;
30934;SDS011;51033;42.648;23.292;2023-03-14T03:41:21;12.40;;;8.52;;
30934;SDS011;51033;42.648;23.292;2023-03-14T03:43:46;11.48;;;8.35;;
30934;SDS011;51033;42.648;23.292;2023-03-14T03:46:12;10.77;;;7.07;;
30934;SDS011;51033;42.648;23.292;2023-03-14T03:48:37;12.38;;;7.95;;
30934;SDS011;51033;42.648;23.292;2023-03-14T03:51:03;17.83;;;8.38;;
30934;SDS011;51033;42.648;23.292;2023-03-14T03:53:28;15.80;;;8.20;;
30934;SDS011;51033;42.648;23.292;2023-03-14T03:55:54;9.98;;;7.60;;
30934;SDS011;51033;42.648;23.292;2023-03-14T03:58:19;10.98;;;8.23;;
30934;SDS011;51033;42.648;23.292;2023-03-14T04:00:45;13.65;;;9.20;;
30934;SDS011;51033;42.648;23.292;2023-03-14T04:03:10;11.70;;;7.43;;
30934;SDS011;51033;42.648;23.292;2023-03-14T04:05:36;10.48;;;8.00;;
30934;SDS011;51033;42.648;23.292;2023-03-14T04:08:01;10.65;;;7.65;;
30934;SDS011;51033;42.648;23.292;2023-03-14T04:10:27;10.15;;;7.70;;
30934;SDS011;51033;42.648;23.292;2023-03-14T04:12:53;10.88;;;8.48;;
30934;SDS011;51033;42.648;23.292;2023-03-14T04:15:18;11.25;;;7.97;;
30934;SDS011;51033;42.648;23.292;2023-03-14T04:17:44;9.38;;;8.20;;
30934;SDS011;51033;42.648;23.292;2023-03-14T04:20:09;14.30;;;8.20;;
30934;SDS011;51033;42.648;23.292;2023-03-14T04:22:38;14.73;;;8.48;;
30934;SDS011;51033;42.648;23.292;2023-03-14T04:25:04;15.82;;;9.30;;
30934;SDS011;51033;42.648;23.292;2023-03-14T04:27:30;14.80;;;8.98;;
30934;SDS011;51033;42.648;23.292;2023-03-14T04:29:56;14.70;;;9.32;;
30934;SDS011;51033;42.648;23.292;2023-03-14T04:32:21;13.20;;;8.93;;
30934;SDS011;51033;42.648;23.292;2023-03-14T04:34:46;13.73;;;9.52;;
30934;SDS011;51033;42.648;23.292;2023-03-14T04:37:12;11.88;;;8.10;;
30934;SDS011;51033;42.648;23.292;2023-03-14T04:39:38;12.80;;;8.25;;
30934;SDS011;51033;42.648;23.292;2023-03-14T04:42:03;11.30;;;8.57;;
30934;SDS011;51033;42.648;23.292;2023-03-14T04:44:28;16.25;;;9.02;;
30934;SDS011;51033;42.648;23.292;2023-03-14T04:46:54;12.80;;;9.25;;
30934;SDS011;51033;42.648;23.292;2023-03-14T04:49:19;16.58;;;9.95;;
30934;SDS011;51033;42.648;23.292;2023-03-14T04:51:45;15.93;;;9.73;;
30934;SDS011;51033;42.648;23.292;2023-03-14T04:54:10;15.43;;;9.85;;
30934;SDS011;51033;42.648;23.292;2023-03-14T04:56:35;12.15;;;8.73;;
30934;SDS011;51033;42.648;23.292;2023-03-14T04:59:02;9.60;;;7.35;;
30934;SDS011;51033;42.648;23.292;2023-03-14T05:01:27;12.50;;;8.10;;
30934;SDS011;51033;42.648;23.292;2023-03-14T05:03:53;14.77;;;8.80;;
30934;SDS011;51033;42.648;23.292;2023-03-14T05:06:18;12.18;;;8.48;;
30934;SDS011;51033;42.648;23.292;2023-03-14T05:08:43;12.35;;;8.48;;
30934;SDS011;51033;42.648;23.292;2023-03-14T05:11:10;12.80;;;8.60;;
30934;SDS011;51033;42.648;23.292;2023-03-14T05:13:36;11.43;;;8.70;;
30934;SDS011;51033;42.648;23.292;2023-03-14T05:16:08;14.18;;;9.13;;
30934;SDS011;51033;42.648;23.292;2023-03-14T05:18:35;10.82;;;8.82;;
30934;SDS011;51033;42.648;23.292;2023-03-14T05:21:01;14.10;;;9.98;;
30934;SDS011;51033;42.648;23.292;2023-03-14T05:23:27;13.85;;;8.80;;
30934;SDS011;51033;42.648;23.292;2023-03-14T05:25:52;12.88;;;9.90;;
30934;SDS011;51033;42.648;23.292;2023-03-14T05:28:17;16.35;;;9.45;;
30934;SDS011;51033;42.648;23.292;2023-03-14T05:30:43;17.63;;;9.60;;
30934;SDS011;51033;42.648;23.292;2023-03-14T05:33:08;16.52;;;10.57;;
30934;SDS011;51033;42.648;23.292;2023-03-14T05:35:33;14.82;;;10.30;;
30934;SDS011;51033;42.648;23.292;2023-03-14T05:37:59;16.38;;;11.57;;
30934;SDS011;51033;42.648;23.292;2023-03-14T05:40:25;15.85;;;9.95;;
30934;SDS011;51033;42.648;23.292;2023-03-14T05:42:50;14.40;;;11.65;;
30934;SDS011;51033;42.648;23.292;2023-03-14T05:45:16;21.75;;;13.55;;
30934;SDS011;51033;42.648;23.292;2023-03-14T05:47:41;26.27;;;15.68;;
30934;SDS011;51033;42.648;23.292;2023-03-14T05:50:07;23.58;;;14.02;;
30934;SDS011;51033;42.648;23.292;2023-03-14T05:52:32;27.00;;;18.27;;
30934;SDS011;51033;42.648;23.292;2023-03-14T05:54:58;28.48;;;18.20;;
30934;SDS011;51033;42.648;23.292;2023-03-14T05:57:23;32.30;;;16.88;;
30934;SDS011;51033;42.648;23.292;2023-03-14T05:59:49;25.65;;;15.73;;
30934;SDS011;51033;42.648;23.292;2023-03-14T06:02:14;26.77;;;17.42;;
30934;SDS011;51033;42.648;23.292;2023-03-14T06:04:40;34.65;;;19.90;;
30934;SDS011;51033;42.648;23.292;2023-03-14T06:07:05;26.02;;;17.25;;
30934;SDS011;51033;42.648;23.292;2023-03-14T06:09:30;26.17;;;16.42;;
30934;SDS011;51033;42.648;23.292;2023-03-14T06:11:56;27.05;;;15.98;;
30934;SDS011;51033;42.648;23.292;2023-03-14T06:14:21;27.35;;;16.63;;
30934;SDS011;51033;42.648;23.292;2023-03-14T06:16:47;24.88;;;15.13;;
30934;SDS011;51033;42.648;23.292;2023-03-14T06:19:15;28.50;;;16.98;;
30934;SDS011;51033;42.648;23.292;2023-03-14T06:21:41;33.80;;;19.15;;
30934;SDS011;51033;42.648;23.292;2023-03-14T06:24:07;36.63;;;18.38;;
30934;SDS011;51033;42.648;23.292;2023-03-14T06:26:32;26.27;;;17.25;;
30934;SDS011;51033;42.648;23.292;2023-03-14T06:28:58;29.23;;;19.15;;
30934;SDS011;51033;42.648;23.292;2023-03-14T06:31:28;35.85;;;20.70;;
30934;SDS011;51033;42.648;23.292;2023-03-14T06:33:56;34.88;;;19.17;;
30934;SDS011;51033;42.648;23.292;2023-03-14T06:36:21;34.88;;;18.48;;
30934;SDS011;51033;42.648;23.292;2023-03-14T06:38:47;35.45;;;18.02;;
30934;SDS011;51033;42.648;23.292;2023-03-14T06:41:13;28.92;;;16.67;;
30934;SDS011;51033;42.648;23.292;2023-03-14T06:43:38;29.55;;;18.35;;
30934;SDS011;51033;42.648;23.292;2023-03-14T06:46:03;27.33;;;16.42;;
30934;SDS011;51033;42.648;23.292;2023-03-14T06:48:29;26.25;;;16.27;;
30934;SDS011;51033;42.648;23.292;2023-03-14T06:50:54;29.48;;;17.90;;
30934;SDS011;51033;42.648;23.292;2023-03-14T06:53:20;28.23;;;16.73;;
30934;SDS011;51033;42.648;23.292;2023-03-14T06:55:45;30.75;;;17.23;;
30934;SDS011;51033;42.648;23.292;2023-03-14T06:58:11;22.08;;;15.45;;
30934;SDS011;51033;42.648;23.292;2023-03-14T07:00:36;24.98;;;16.23;;
30934;SDS011;51033;42.648;23.292;2023-03-14T07:03:02;23.40;;;16.25;;
30934;SDS011;51033;42.648;23.292;2023-03-14T07:05:27;23.52;;;15.20;;
30934;SDS011;51033;42.648;23.292;2023-03-14T07:07:53;33.40;;;17.77;;
30934;SDS011;51033;42.648;23.292;2023-03-14T07:10:18;31.08;;;16.85;;
30934;SDS011;51033;42.648;23.292;2023-03-14T07:12:44;24.13;;;15.43;;
30934;SDS011;51033;42.648;23.292;2023-03-14T07:15:09;27.42;;;16.73;;
30934;SDS011;51033;42.648;23.292;2023-03-14T07:17:35;26.42;;;16.25;;
30934;SDS011;51033;42.648;23.292;2023-03-14T07:20:01;26.80;;;16.05;;
30934;SDS011;51033;42.648;23.292;2023-03-14T07:22:28;26.75;;;15.80;;
30934;SDS011;51033;42.648;23.292;2023-03-14T07:24:53;24.35;;;16.10;;
30934;SDS011;51033;42.648;23.292;2023-03-14T07:27:19;26.88;;;15.63;;
30934;SDS011;51033;42.648;23.292;2023-03-14T07:29:44;33.33;;;16.30;;
30934;SDS011;51033;42.648;23.292;2023-03-14T07:32:09;20.38;;;14.95;;
30934;SDS011;51033;42.648;23.292;2023-03-14T07:34:35;35.10;;;20.67;;
30934;SDS011;51033;42.648;23.292;2023-03-14T07:37:00;22.58;;;13.88;;
30934;SDS011;51033;42.648;23.292;2023-03-14T07:39:26;28.25;;;13.60;;
30934;SDS011;51033;42.648;23.292;2023-03-14T07:41:51;23.35;;;13.80;;
30934;SDS011;51033;42.648;23.292;2023-03-14T07:44:16;21.83;;;13.60;;
30934;SDS011;51033;42.648;23.292;2023-03-14T07:46:42;20.83;;;12.75;;
30934;SDS011;51033;42.648;23.292;2023-03-14T07:49:07;18.77;;;12.80;;
30934;SDS011;51033;42.648;23.292;2023-03-14T07:51:32;17.33;;;11.60;;
30934;SDS011;51033;42.648;23.292;2023-03-14T07:53:58;23.80;;;11.43;;
30934;SDS011;51033;42.648;23.292;2023-03-14T07:56:23;17.50;;;11.30;;
30934;SDS011;51033;42.648;23.292;2023-03-14T07:58:49;17.80;;;10.73;;
30934;SDS011;51033;42.648;23.292;2023-03-14T08:01:14;20.00;;;10.70;;
30934;SDS011;51033;42.648;23.292;2023-03-14T08:03:39;22.52;;;12.52;;
30934;SDS011;51033;42.648;23.292;2023-03-14T08:06:05;23.20;;;11.85;;
30934;SDS011;51033;42.648;23.292;2023-03-14T08:08:31;20.02;;;11.88;;
30934;SDS011;51033;42.648;23.292;2023-03-14T08:11:01;18.55;;;11.00;;
30934;SDS011;51033;42.648;23.292;2023-03-14T08:13:28;18.13;;;11.98;;
30934;SDS011;51033;42.648;23.292;2023-03-14T08:15:53;21.23;;;12.13;;
30934;SDS011;51033;42.648;23.292;2023-03-14T08:18:19;18.98;;;11.82;;
30934;SDS011;51033;42.648;23.292;2023-03-14T08:20:44;16.55;;;10.52;;
30934;SDS011;51033;42.648;23.292;2023-03-14T08:23:09;18.15;;;10.68;;
30934;SDS011;51033;42.648;23.292;2023-03-14T08:25:35;17.85;;;11.00;;
30934;SDS011;51033;42.648;23.292;2023-03-14T08:28:00;19.75;;;11.45;;
30934;SDS011;51033;42.648;23.292;2023-03-14T08:30:26;17.92;;;11.20;;
30934;SDS011;51033;42.648;23.292;2023-03-14T08:32:51;16.65;;;10.93;;
30934;SDS011;51033;42.648;23.292;2023-03-14T08:35:16;19.23;;;11.20;;
30934;SDS011;51033;42.648;23.292;2023-03-14T08:37:42;19.30;;;11.18;;
30934;SDS011;51033;42.648;23.292;2023-03-14T08:40:08;22.85;;;14.80;;
30934;SDS011;51033;42.648;23.292;2023-03-14T08:42:38;26.58;;;15.05;;
30934;SDS011;51033;42.648;23.292;2023-03-14T08:45:05;57.10;;;26.58;;
30934;SDS011;51033;42.648;23.292;2023-03-14T08:47:31;20.13;;;14.48;;
30934;SDS011;51033;42.648;23.292;2023-03-14T08:49:57;24.45;;;17.05;;
30934;SDS011;51033;42.648;23.292;2023-03-14T08:52:22;26.20;;;15.77;;
30934;SDS011;51033;42.648;23.292;2023-03-14T08:54:48;31.88;;;15.85;;
30934;SDS011;51033;42.648;23.292;2023-03-14T08:57:13;18.77;;;12.27;;
30934;SDS011;51033;42.648;23.292;2023-03-14T08:59:39;16.35;;;9.85;;
30934;SDS011;51033;42.648;23.292;2023-03-14T09:02:05;15.50;;;11.48;;
30934;SDS011;51033;42.648;23.292;2023-03-14T09:04:31;19.88;;;11.65;;
30934;SDS011;51033;42.648;23.292;2023-03-14T09:06:57;21.17;;;12.95;;
30934;SDS011;51033;42.648;23.292;2023-03-14T09:09:23;18.75;;;11.13;;
30934;SDS011;51033;42.648;23.292;2023-03-14T09:11:49;26.90;;;12.23;;
30934;SDS011;51033;42.648;23.292;2023-03-14T09:14:14;17.10;;;11.55;;
30934;SDS011;51033;42.648;23.292;2023-03-14T09:16:40;14.00;;;9.55;;
30934;SDS011;51033;42.648;23.292;2023-03-14T09:19:05;22.38;;;10.90;;
30934;SDS011;51033;42.648;23.292;2023-03-14T09:21:31;20.90;;;12.18;;
30934;SDS011;51033;42.648;23.292;2023-03-14T09:23:56;20.85;;;13.15;;
30934;SDS011;51033;42.648;23.292;2023-03-14T09:26:21;20.35;;;12.77;;
30934;SDS011;51033;42.648;23.292;2023-03-14T09:28:47;25.25;;;13.18;;
30934;SDS011;51033;42.648;23.292;2023-03-14T09:31:13;17.55;;;10.55;;
30934;SDS011;51033;42.648;23.292;2023-03-14T09:33:39;16.48;;;11.32;;
30934;SDS011;51033;42.648;23.292;2023-03-14T09:36:05;23.60;;;11.70;;
30934;SDS011;51033;42.648;23.292;2023-03-14T09:38:31;18.60;;;11.68;;
30934;SDS011;51033;42.648;23.292;2023-03-14T09:40:58;21.58;;;11.52;;
30934;SDS011;51033;42.648;23.292;2023-03-14T09:43:25;22.98;;;12.25;;
30934;SDS011;51033;42.648;23.292;2023-03-14T09:45:53;20.08;;;10.65;;
30934;SDS011;51033;42.648;23.292;2023-03-14T09:48:20;19.23;;;12.43;;
30934;SDS011;51033;42.648;23.292;2023-03-14T09:50:57;14.45;;;11.07;;
30934;SDS011;51033;42.648;23.292;2023-03-14T09:53:28;17.88;;;11.70;;
30934;SDS011;51033;42.648;23.292;2023-03-14T09:56:03;20.75;;;11.13;;
30934;SDS011;51033;42.648;23.292;2023-03-14T09:58:35;31.13;;;15.90;;
30934;SDS011;51033;42.648;23.292;2023-03-14T10:01:03;19.30;;;11.30;;
30934;SDS011;51033;42.648;23.292;2023-03-14T10:03:29;19.10;;;10.82;;
30934;SDS011;51033;42.648;23.292;2023-03-14T10:05:58;24.58;;;12.52;;
30934;SDS011;51033;42.648;23.292;2023-03-14T10:08:24;18.02;;;11.40;;
30934;SDS011;51033;42.648;23.292;2023-03-14T10:10:49;15.68;;;11.07;;
30934;SDS011;51033;42.648;23.292;2023-03-14T10:13:16;16.48;;;11.05;;
30934;SDS011;51033;42.648;23.292;2023-03-14T10:15:54;21.95;;;12.45;;
30934;SDS011;51033;42.648;23.292;2023-03-14T10:18:24;26.60;;;13.77;;
30934;SDS011;51033;42.648;23.292;2023-03-14T10:20:50;19.02;;;11.07;;
30934;SDS011;51033;42.648;23.292;2023-03-14T10:23:46;28.88;;;18.75;;
30934;SDS011;51033;42.648;23.292;2023-03-14T10:26:13;19.33;;;12.82;;
30934;SDS011;51033;42.648;23.292;2023-03-14T10:28:52;20.38;;;12.40;;
30934;SDS011;51033;42.648;23.292;2023-03-14T10:31:24;25.95;;;13.93;;
30934;SDS011;51033;42.648;23.292;2023-03-14T10:33:57;24.70;;;12.57;;
30934;SDS011;51033;42.648;23.292;2023-03-14T10:36:31;20.40;;;13.05;;
30934;SDS011;51033;42.648;23.292;2023-03-14T10:41:50;25.15;;;13.25;;
30934;SDS011;51033;42.648;23.292;2023-03-14T10:44:20;27.58;;;11.55;;
30934;SDS011;51033;42.648;23.292;2023-03-14T10:47:22;24.35;;;12.50;;
30934;SDS011;51033;42.648;23.292;2023-03-14T10:49:42;17.75;;;12.90;;
30934;SDS011;51033;42.648;23.292;2023-03-14T10:54:46;16.50;;;11.75;;
30934;SDS011;51033;42.648;23.292;2023-03-14T10:57:12;20.88;;;11.65;;
30934;SDS011;51033;42.648;23.292;2023-03-14T10:59:39;23.15;;;11.50;;
30934;SDS011;51033;42.648;23.292;2023-03-14T11:07:51;21.73;;;11.35;;
30934;SDS011;51033;42.648;23.292;2023-03-14T11:10:33;13.00;;;9.52;;
30934;SDS011;51033;42.648;23.292;2023-03-14T11:27:17;14.73;;;8.23;;
30934;SDS011;51033;42.648;23.292;2023-03-14T11:29:57;14.80;;;8.63;;
30934;SDS011;51033;42.648;23.292;2023-03-14T11:35:19;15.45;;;8.73;;
30934;SDS011;51033;42.648;23.292;2023-03-14T11:37:55;13.80;;;8.38;;
30934;SDS011;51033;42.648;23.292;2023-03-14T11:40:28;11.00;;;7.13;;
30934;SDS011;51033;42.648;23.292;2023-03-14T11:42:55;11.65;;;6.80;;
30934;SDS011;51033;42.648;23.292;2023-03-14T11:45:37;10.80;;;7.07;;
30934;SDS011;51033;42.648;23.292;2023-03-14T11:51:11;12.13;;;5.70;;
30934;SDS011;51033;42.648;23.292;2023-03-14T11:56:19;13.63;;;5.47;;
30934;SDS011;51033;42.648;23.292;2023-03-14T11:58:53;9.63;;;6.32;;
30934;SDS011;51033;42.648;23.292;2023-03-14T12:01:22;10.52;;;6.75;;
30934;SDS011;51033;42.648;23.292;2023-03-14T12:03:56;10.48;;;5.43;;
30934;SDS011;51033;42.648;23.292;2023-03-14T12:06:44;6.88;;;5.28;;
30934;SDS011;51033;42.648;23.292;2023-03-14T12:09:11;7.03;;;5.20;;
30934;SDS011;51033;42.648;23.292;2023-03-14T12:14:43;8.35;;;5.05;;
30934;SDS011;51033;42.648;23.292;2023-03-14T12:17:06;6.78;;;4.18;;
30934;SDS011;51033;42.648;23.292;2023-03-14T12:22:35;6.40;;;3.88;;
30934;SDS011;51033;42.648;23.292;2023-03-14T12:25:18;13.80;;;4.47;;
30934;SDS011;51033;42.648;23.292;2023-03-14T12:35:38;7.45;;;3.72;;
30934;SDS011;51033;42.648;23.292;2023-03-14T12:38:13;12.73;;;4.93;;
30934;SDS011;51033;42.648;23.292;2023-03-14T12:43:40;4.13;;;3.03;;
30934;SDS011;51033;42.648;23.292;2023-03-14T12:46:07;5.85;;;3.72;;
30934;SDS011;51033;42.648;23.292;2023-03-14T12:48:39;8.05;;;3.50;;
30934;SDS011;51033;42.648;23.292;2023-03-14T12:51:11;8.95;;;3.35;;
30934;SDS011;51033;42.648;23.292;2023-03-14T12:56:22;9.10;;;3.65;;
30934;SDS011;51033;42.648;23.292;2023-03-14T13:01:22;8.38;;;3.55;;
30934;SDS011;51033;42.648;23.292;2023-03-14T13:03:55;3.97;;;3.20;;
30934;SDS011;51033;42.648;23.292;2023-03-14T13:09:48;6.57;;;3.40;;
30934;SDS011;51033;42.648;23.292;2023-03-14T13:12:14;8.35;;;3.33;;
30934;SDS011;51033;42.648;23.292;2023-03-14T13:14:43;9.27;;;3.72;;
30934;SDS011;51033;42.648;23.292;2023-03-14T13:17:12;6.00;;;3.28;;
30934;SDS011;51033;42.648;23.292;2023-03-14T13:19:39;4.75;;;3.25;;
30934;SDS011;51033;42.648;23.292;2023-03-14T13:22:06;6.22;;;2.92;;
30934;SDS011;51033;42.648;23.292;2023-03-14T13:24:42;3.72;;;3.00;;
30934;SDS011;51033;42.648;23.292;2023-03-14T13:27:09;3.33;;;2.70;;
30934;SDS011;51033;42.648;23.292;2023-03-14T13:29:43;4.82;;;3.00;;
30934;SDS011;51033;42.648;23.292;2023-03-14T13:32:16;7.32;;;3.05;;
30934;SDS011;51033;42.648;23.292;2023-03-14T13:34:45;5.40;;;3.22;;
30934;SDS011;51033;42.648;23.292;2023-03-14T13:37:22;4.70;;;3.20;;
30934;SDS011;51033;42.648;23.292;2023-03-14T13:39:53;5.75;;;3.15;;
30934;SDS011;51033;42.648;23.292;2023-03-14T13:42:20;5.63;;;2.70;;
30934;SDS011;51033;42.648;23.292;2023-03-14T13:44:49;9.00;;;3.28;;
30934;SDS011;51033;42.648;23.292;2023-03-14T13:47:18;4.20;;;2.47;;
30934;SDS011;51033;42.648;23.292;2023-03-14T13:49:45;3.70;;;2.60;;
30934;SDS011;51033;42.648;23.292;2023-03-14T13:55:02;8.18;;;2.90;;
30934;SDS011;51033;42.648;23.292;2023-03-14T13:57:43;4.57;;;2.83;;
30934;SDS011;51033;42.648;23.292;2023-03-14T14:00:20;5.93;;;2.42;;
30934;SDS011;51033;42.648;23.292;2023-03-14T14:02:48;4.60;;;2.80;;
30934;SDS011;51033;42.648;23.292;2023-03-14T14:05:14;5.53;;;2.50;;
30934;SDS011;51033;42.648;23.292;2023-03-14T14:07:40;5.88;;;2.67;;
30934;SDS011;51033;42.648;23.292;2023-03-14T14:10:10;4.50;;;1.90;;
30934;SDS011;51033;42.648;23.292;2023-03-14T14:15:21;5.82;;;2.15;;
30934;SDS011;51033;42.648;23.292;2023-03-14T14:18:08;7.13;;;3.25;;
30934;SDS011;51033;42.648;23.292;2023-03-14T14:20:45;10.57;;;3.30;;
30934;SDS011;51033;42.648;23.292;2023-03-14T14:23:14;5.57;;;2.63;;
30934;SDS011;51033;42.648;23.292;2023-03-14T14:25:57;7.03;;;3.05;;
30934;SDS011;51033;42.648;23.292;2023-03-14T14:28:24;6.40;;;2.45;;
30934;SDS011;51033;42.648;23.292;2023-03-14T14:33:58;4.70;;;1.98;;
30934;SDS011;51033;42.648;23.292;2023-03-14T14:36:38;4.60;;;2.30;;
30934;SDS011;51033;42.648;23.292;2023-03-14T14:39:10;2.95;;;2.25;;
30934;SDS011;51033;42.648;23.292;2023-03-14T14:41:42;6.18;;;2.78;;
30934;SDS011;51033;42.648;23.292;2023-03-14T14:44:10;4.88;;;2.30;;
30934;SDS011;51033;42.648;23.292;2023-03-14T14:46:37;6.22;;;2.33;;
30934;SDS011;51033;42.648;23.292;2023-03-14T14:49:05;4.03;;;1.98;;
30934;SDS011;51033;42.648;23.292;2023-03-14T14:51:38;7.30;;;2.50;;
30934;SDS011;51033;42.648;23.292;2023-03-14T14:54:11;3.05;;;1.88;;
30934;SDS011;51033;42.648;23.292;2023-03-14T14:56:39;3.33;;;2.25;;
30934;SDS011;51033;42.648;23.292;2023-03-14T14:59:05;4.82;;;2.50;;
30934;SDS011;51033;42.648;23.292;2023-03-14T15:01:43;11.27;;;2.78;;
30934;SDS011;51033;42.648;23.292;2023-03-14T15:04:09;6.35;;;3.58;;
30934;SDS011;51033;42.648;23.292;2023-03-14T15:06:38;3.70;;;2.08;;
30934;SDS011;51033;42.648;23.292;2023-03-14T15:09:04;7.03;;;2.42;;
30934;SDS011;51033;42.648;23.292;2023-03-14T15:11:31;4.55;;;2.33;;
30934;SDS011;51033;42.648;23.292;2023-03-14T15:13:56;6.68;;;2.13;;
30934;SDS011;51033;42.648;23.292;2023-03-14T15:16:27;3.92;;;2.05;;
30934;SDS011;51033;42.648;23.292;2023-03-14T15:18:55;5.75;;;2.05;;
30934;SDS011;51033;42.648;23.292;2023-03-14T15:21:30;5.90;;;2.17;;
30934;SDS011;51033;42.648;23.292;2023-03-14T15:23:56;5.68;;;2.65;;
30934;SDS011;51033;42.648;23.292;2023-03-14T15:26:23;7.20;;;2.25;;
30934;SDS011;51033;42.648;23.292;2023-03-14T15:28:50;5.85;;;2.30;;
30934;SDS011;51033;42.648;23.292;2023-03-14T15:31:16;3.05;;;2.10;;
30934;SDS011;51033;42.648;23.292;2023-03-14T15:33:44;5.15;;;2.35;;
30934;SDS011;51033;42.648;23.292;2023-03-14T15:36:29;9.88;;;2.55;;
30934;SDS011;51033;42.648;23.292;2023-03-14T15:38:56;6.07;;;2.40;;
30934;SDS011;51033;42.648;23.292;2023-03-14T15:41:23;5.32;;;3.10;;
30934;SDS011;51033;42.648;23.292;2023-03-14T15:43:49;4.55;;;2.67;;
30934;SDS011;51033;42.648;23.292;2023-03-14T15:46:15;7.45;;;2.88;;